createdAt,value
2018-01-04T00:01:07.819Z,1.10
2018-01-04T00:03:38.374Z,0.83
2018-01-04T00:06:09.012Z,0.97
2018-01-04T00:08:39.618Z,0.50
2018-01-04T00:11:10.181Z,0.80
2018-01-04T00:13:40.787Z,1.67
2018-01-04T00:16:11.342Z,1.07
2018-01-04T00:18:41.396Z,0.73
2018-01-04T00:21:12.015Z,1.30
2018-01-04T00:23:42.613Z,1.00
2018-01-04T00:26:13.242Z,0.90
2018-01-04T00:28:43.839Z,1.63
2018-01-04T00:31:14.398Z,1.03
2018-01-04T00:33:45.014Z,1.00
2018-01-04T00:36:32.191Z,1.00
2018-01-04T00:42:18.828Z,0.90
2018-01-04T00:44:54.324Z,1.43
2018-01-04T00:47:29.481Z,1.37
2018-01-04T00:50:04.623Z,0.80
2018-01-04T00:52:39.293Z,1.40
2018-01-04T00:55:15.422Z,0.63
2018-01-04T00:57:51.884Z,1.33
2018-01-04T01:00:24.952Z,0.83
2018-01-04T01:03:05.561Z,0.70
2018-01-04T01:05:59.291Z,0.60
2018-01-04T01:09:01.930Z,0.60
2018-01-04T01:11:38.624Z,0.60
2018-01-04T01:14:13.784Z,1.10
2018-01-04T01:17:03.315Z,1.13
2018-01-04T01:19:57.180Z,0.80
2018-01-04T01:22:32.031Z,0.90
2018-01-04T01:25:19.092Z,0.87
2018-01-04T01:28:07.236Z,1.00
2018-01-04T01:30:44.664Z,0.77
2018-01-04T01:33:30.033Z,0.70
2018-01-04T01:36:23.317Z,1.00
2018-01-04T01:39:01.534Z,1.10
2018-01-04T01:41:34.472Z,0.80
2018-01-04T01:44:06.934Z,1.00
2018-01-04T01:46:39.060Z,1.27
2018-01-04T01:49:17.220Z,1.10
2018-01-04T01:51:49.325Z,1.70
2018-01-04T01:54:21.184Z,0.90
2018-01-04T01:56:51.934Z,1.43
2018-01-04T01:59:22.520Z,1.27
2018-01-04T02:01:53.126Z,1.00
2018-01-04T02:04:23.737Z,1.10
2018-01-04T02:06:54.312Z,1.27
2018-01-04T02:09:24.990Z,2.13
2018-01-04T02:11:55.558Z,0.80
2018-01-04T02:14:26.171Z,0.87
2018-01-04T02:16:56.538Z,1.20
2018-01-04T02:19:37.928Z,1.10
2018-01-04T02:22:19.303Z,1.20
2018-01-04T02:25:00.526Z,1.10
2018-01-04T02:27:41.935Z,1.37
2018-01-04T02:30:23.235Z,1.00
2018-01-04T02:33:04.657Z,1.03
2018-01-04T02:35:46.065Z,1.07
2018-01-04T02:38:27.086Z,1.47
2018-01-04T02:41:01.368Z,1.90
2018-01-04T02:43:42.361Z,0.87
2018-01-04T02:46:22.511Z,1.10
2018-01-04T02:48:52.539Z,0.90
2018-01-04T02:51:22.523Z,1.27
2018-01-04T02:53:52.573Z,1.17
2018-01-04T02:56:22.551Z,0.83
2018-01-04T02:58:52.592Z,1.47
2018-01-04T03:01:22.582Z,1.20
2018-01-04T03:03:52.571Z,0.90
2018-01-04T03:06:22.630Z,1.10
2018-01-04T03:08:52.613Z,1.10
2018-01-04T03:11:22.621Z,1.03
2018-01-04T03:13:52.667Z,0.90
2018-01-04T03:16:22.652Z,0.70
2018-01-04T03:18:52.392Z,0.90
2018-01-04T03:21:22.382Z,1.00
2018-01-04T03:23:52.422Z,0.70
2018-01-04T03:26:27.769Z,1.63
2018-01-04T03:29:03.100Z,0.77
2018-01-04T03:31:38.434Z,1.03
2018-01-04T03:34:13.807Z,0.90
2018-01-04T03:36:49.158Z,1.53
2018-01-04T03:39:23.986Z,1.03
2018-01-04T03:41:59.734Z,0.90
2018-01-04T03:44:35.162Z,1.20
2018-01-04T03:47:10.622Z,1.17
2018-01-04T03:52:49.194Z,1.00
2018-01-04T03:55:24.618Z,0.70
2018-01-04T03:57:54.705Z,1.10
2018-01-04T04:00:30.146Z,1.10
2018-01-04T04:03:00.668Z,1.37
2018-01-04T04:05:36.119Z,0.60
2018-01-04T04:08:11.472Z,1.00
2018-01-04T04:10:41.472Z,0.53
2018-01-04T04:13:11.493Z,1.57
2018-01-04T04:15:45.481Z,0.90
2018-01-04T04:18:15.500Z,1.00
2018-01-04T04:20:45.487Z,1.60
2018-01-04T04:23:15.528Z,0.93
2018-01-04T04:25:50.235Z,1.07
2018-01-04T04:28:20.268Z,1.70
2018-01-04T04:30:50.248Z,1.10
2018-01-04T04:33:20.276Z,1.27
2018-01-04T04:35:50.357Z,1.30
2018-01-04T04:38:20.393Z,1.40
2018-01-04T04:40:50.384Z,1.20
2018-01-04T04:43:20.376Z,1.30
2018-01-04T04:45:50.393Z,1.00
2018-01-04T04:48:20.385Z,1.10
2018-01-04T04:50:50.413Z,1.13
2018-01-04T04:53:20.392Z,0.80
2018-01-04T04:55:50.365Z,1.37
2018-01-04T04:58:20.408Z,1.50
2018-01-04T05:00:50.411Z,1.23
2018-01-04T05:03:20.470Z,0.80
2018-01-04T05:05:50.502Z,1.57
2018-01-04T05:08:20.482Z,1.40
2018-01-04T05:10:50.473Z,0.90
2018-01-04T05:13:20.512Z,0.60
2018-01-04T05:15:51.646Z,1.00
2018-01-04T05:18:21.661Z,0.80
2018-01-04T05:20:51.770Z,1.17
2018-01-04T05:23:21.814Z,0.90
2018-01-04T05:25:52.550Z,0.90
2018-01-04T05:28:22.617Z,1.17
2018-01-04T05:30:52.618Z,0.60
2018-01-04T05:33:22.657Z,0.90
2018-01-04T05:35:52.660Z,0.83
2018-01-04T05:38:22.658Z,1.30
2018-01-04T05:40:52.717Z,1.30
2018-01-04T05:43:22.842Z,0.93
2018-01-04T05:45:52.866Z,0.73
2018-01-04T05:48:22.897Z,1.03
2018-01-04T05:50:56.937Z,0.60
2018-01-04T05:53:33.701Z,0.53
2018-01-04T05:56:03.702Z,0.70
2018-01-04T05:58:33.722Z,0.80
2018-01-04T06:01:03.744Z,0.67
2018-01-04T06:03:33.774Z,1.10
2018-01-04T06:06:03.777Z,0.70
2018-01-04T06:08:33.800Z,0.90
2018-01-04T06:11:03.799Z,0.57
2018-01-04T06:13:33.781Z,0.73
2018-01-04T06:16:03.796Z,0.70
2018-01-04T06:18:33.794Z,1.50
2018-01-04T06:21:03.819Z,0.80
2018-01-04T06:23:33.842Z,1.33
2018-01-04T06:26:03.814Z,0.50
2018-01-04T06:28:33.844Z,1.17
2018-01-04T06:31:03.830Z,0.40
2018-01-04T06:33:33.865Z,1.00
2018-01-04T06:36:03.838Z,1.33
2018-01-04T06:38:33.809Z,0.70
2018-01-04T06:41:03.840Z,0.83
2018-01-04T06:43:33.832Z,1.03
2018-01-04T06:46:03.860Z,0.70
2018-01-04T06:48:33.875Z,1.00
2018-01-04T06:51:03.861Z,1.00
2018-01-04T06:53:33.897Z,0.73
2018-01-04T06:56:03.884Z,0.73
2018-01-04T06:58:33.890Z,0.80
2018-01-04T07:01:03.919Z,2.13
2018-01-04T07:03:33.957Z,0.80
2018-01-04T07:06:03.927Z,0.70
2018-01-04T07:08:33.928Z,0.97
2018-01-04T07:11:03.950Z,1.17
2018-01-04T07:13:33.936Z,0.50
2018-01-04T07:16:03.972Z,0.67
2018-01-04T07:18:33.954Z,0.67
2018-01-04T07:21:03.952Z,0.50
2018-01-04T07:23:33.989Z,0.80
2018-01-04T07:26:03.971Z,1.00
2018-01-04T07:28:33.946Z,1.10
2018-01-04T07:31:03.977Z,1.20
2018-01-04T07:33:33.966Z,0.70
2018-01-04T07:36:03.944Z,0.87
2018-01-04T07:38:34.020Z,0.77
2018-01-04T07:41:04.580Z,0.97
2018-01-04T07:43:35.218Z,0.90
2018-01-04T07:46:05.802Z,1.27
2018-01-04T07:48:36.411Z,1.27
2018-01-04T07:51:06.980Z,1.17
2018-01-04T07:53:37.588Z,1.13
2018-01-04T07:56:08.210Z,1.40
2018-01-04T07:58:38.830Z,1.23
2018-01-04T08:01:09.784Z,1.27
2018-01-04T08:03:40.393Z,1.30
2018-01-04T08:06:10.940Z,1.17
2018-01-04T08:08:41.580Z,0.87
2018-01-04T08:11:12.138Z,1.50
2018-01-04T08:13:42.811Z,1.03
2018-01-04T08:16:13.363Z,1.07
2018-01-04T08:18:43.958Z,1.20
2018-01-04T08:21:14.533Z,1.23
2018-01-04T08:23:45.129Z,1.17
2018-01-04T08:26:15.684Z,1.13
2018-01-04T08:28:46.317Z,1.10
2018-01-04T08:31:16.898Z,1.43
2018-01-04T08:33:47.512Z,1.00
2018-01-04T08:36:18.045Z,0.70
2018-01-04T08:38:48.643Z,1.77
2018-01-04T08:41:19.190Z,1.00
2018-01-04T08:43:49.806Z,1.17
2018-01-04T08:46:20.425Z,1.00
2018-01-04T08:48:50.799Z,0.90
2018-01-04T08:51:21.345Z,1.93
2018-01-04T08:53:51.797Z,1.23
2018-01-04T08:56:22.423Z,1.33
2018-01-04T08:58:52.973Z,1.13
2018-01-04T09:01:23.598Z,1.10
2018-01-04T09:03:54.201Z,1.20
2018-01-04T09:06:24.803Z,1.07
2018-01-04T09:08:55.420Z,1.27
2018-01-04T09:11:26.995Z,1.00
2018-01-04T09:13:57.586Z,1.20
2018-01-04T09:16:27.993Z,1.00
2018-01-04T09:18:58.566Z,1.27
2018-01-04T09:21:29.228Z,1.20
2018-01-04T09:23:59.850Z,1.13
2018-01-04T09:26:30.433Z,1.67
2018-01-04T09:29:01.065Z,1.57
2018-01-04T09:31:31.635Z,1.80
2018-01-04T09:34:02.287Z,2.00
2018-01-04T09:36:32.890Z,1.30
2018-01-04T09:39:03.190Z,1.57
2018-01-04T09:41:33.809Z,1.90
2018-01-04T09:44:05.408Z,1.77
2018-01-04T09:46:35.986Z,2.30
2018-01-04T09:49:06.930Z,2.20
2018-01-04T09:51:37.509Z,2.20
2018-01-04T09:54:08.212Z,2.10
2018-01-04T09:56:38.802Z,1.87
2018-01-04T09:59:09.571Z,1.73
2018-01-04T10:01:40.297Z,2.23
2018-01-04T10:04:10.897Z,1.73
2018-01-04T10:06:41.525Z,2.20
2018-01-04T10:09:11.589Z,1.27
2018-01-04T10:11:43.967Z,1.73
2018-01-04T10:14:14.549Z,1.33
2018-01-04T10:16:45.172Z,1.90
2018-01-04T10:19:15.826Z,1.47
2018-01-04T10:21:46.387Z,1.80
2018-01-04T10:24:17.034Z,1.77
2018-01-04T10:26:47.644Z,1.43
2018-01-04T10:29:18.237Z,1.30
2018-01-04T10:31:48.894Z,0.80
2018-01-04T10:34:20.280Z,1.90
2018-01-04T10:36:51.589Z,1.20
2018-01-04T10:39:22.193Z,1.50
2018-01-04T10:41:53.172Z,1.40
2018-01-04T10:44:23.784Z,1.60
2018-01-04T10:46:54.390Z,1.93
2018-01-04T10:49:25.920Z,2.37
2018-01-04T10:51:56.814Z,2.00
2018-01-04T10:54:30.177Z,2.40
2018-01-04T10:57:00.785Z,2.13
2018-01-04T10:59:31.403Z,2.27
2018-01-04T11:02:02.005Z,2.03
2018-01-04T11:04:32.597Z,2.13
2018-01-04T11:07:03.450Z,3.10
2018-01-04T11:09:34.041Z,2.23
2018-01-04T11:12:04.706Z,2.77
2018-01-04T11:14:35.289Z,2.07
2018-01-04T11:17:05.911Z,2.73
2018-01-04T11:19:36.518Z,2.90
2018-01-04T11:22:07.142Z,2.80
2018-01-04T11:24:37.783Z,2.43
2018-01-04T11:27:08.390Z,4.90
2018-01-04T11:29:39.023Z,8.27
2018-01-04T11:32:09.628Z,5.80
2018-01-04T11:34:40.266Z,6.10
2018-01-04T11:37:10.869Z,5.70
2018-01-04T11:39:41.502Z,5.53
2018-01-04T11:42:12.069Z,5.20
2018-01-04T11:44:42.683Z,4.47
2018-01-04T11:47:13.273Z,4.90
2018-01-04T11:49:43.894Z,5.47
2018-01-04T11:52:14.497Z,5.70
2018-01-04T11:54:45.066Z,4.27
2018-01-04T11:57:16.331Z,4.30
2018-01-04T11:59:46.781Z,4.37
2018-01-04T12:02:17.389Z,4.27
2018-01-04T12:04:48.001Z,3.80
2018-01-04T12:07:18.638Z,3.20
2018-01-04T12:09:49.246Z,3.13
2018-01-04T12:12:19.866Z,2.87
2018-01-04T12:14:50.457Z,3.50
2018-01-04T12:17:21.120Z,3.20
2018-01-04T12:19:51.842Z,3.00
2018-01-04T12:22:22.514Z,3.27
2018-01-04T12:24:53.093Z,3.33
2018-01-04T12:27:23.714Z,3.20
2018-01-04T12:29:54.303Z,3.50
2018-01-04T12:32:24.919Z,2.30
2018-01-04T12:34:55.498Z,4.00
2018-01-04T12:37:26.167Z,3.93
2018-01-04T12:39:56.791Z,3.23
2018-01-04T12:42:27.406Z,2.63
2018-01-04T12:44:57.966Z,3.93
2018-01-04T12:47:28.354Z,4.03
2018-01-04T12:49:58.928Z,3.77
2018-01-04T12:52:29.554Z,3.13
2018-01-04T12:55:00.118Z,2.50
2018-01-04T12:57:30.730Z,4.00
2018-01-04T13:00:01.277Z,3.60
2018-01-04T13:02:31.970Z,3.40
2018-01-04T13:05:02.550Z,4.07
2018-01-04T13:07:33.176Z,4.00
2018-01-04T13:10:03.587Z,4.13
2018-01-04T13:12:35.147Z,3.30
2018-01-04T13:15:05.774Z,4.13
2018-01-04T13:17:37.008Z,4.80
2018-01-04T13:20:07.590Z,5.27
2018-01-04T13:22:38.214Z,4.03
2018-01-04T13:25:08.913Z,3.57
2018-01-04T13:27:40.477Z,4.07
2018-01-04T13:30:11.055Z,4.20
2018-01-04T13:32:41.669Z,3.93
2018-01-04T13:35:12.286Z,4.03
2018-01-04T13:37:42.857Z,3.60
2018-01-04T13:40:13.478Z,3.30
2018-01-04T13:42:44.070Z,3.53
2018-01-04T13:45:14.714Z,4.13
2018-01-04T13:47:45.316Z,4.73
2018-01-04T13:50:15.970Z,4.70
2018-01-04T13:52:46.602Z,3.97
2018-01-04T13:55:17.213Z,3.90
2018-01-04T13:57:47.774Z,3.80
2018-01-04T14:00:19.238Z,4.10
2018-01-04T14:02:50.693Z,3.70
2018-01-04T14:05:21.342Z,4.30
2018-01-04T14:07:51.965Z,4.00
2018-01-04T14:10:22.574Z,4.30
2018-01-04T14:12:53.201Z,4.30
2018-01-04T14:15:23.773Z,3.93
2018-01-04T14:17:54.440Z,3.60
2018-01-04T14:20:24.977Z,4.80
2018-01-04T14:22:55.584Z,5.00
2018-01-04T14:25:26.198Z,7.17
2018-01-04T14:27:56.764Z,5.93
2018-01-04T14:30:27.373Z,5.10
2018-01-04T14:32:57.938Z,5.10
2018-01-04T14:35:28.748Z,5.20
2018-01-04T14:37:59.328Z,5.63
2018-01-04T14:40:29.937Z,4.90
2018-01-04T14:43:00.598Z,4.40
2018-01-04T14:45:31.216Z,4.97
2018-01-04T14:48:01.778Z,4.60
2018-01-04T14:50:32.398Z,5.70
2018-01-04T14:53:02.969Z,5.80
2018-01-04T14:55:33.614Z,5.80
2018-01-04T14:58:04.176Z,5.53
2018-01-04T15:00:34.788Z,5.10
2018-01-04T15:03:05.434Z,5.30
2018-01-04T15:05:36.013Z,5.70
2018-01-04T15:08:06.642Z,6.30
2018-01-04T15:10:37.231Z,8.03
2018-01-04T15:13:07.853Z,7.13
2018-01-04T15:15:42.461Z,7.73
2018-01-04T15:18:13.090Z,6.43
2018-01-04T15:20:43.662Z,6.00
2018-01-04T15:23:14.428Z,6.23
2018-01-04T15:25:46.708Z,5.70
2018-01-04T15:28:17.274Z,6.67
2018-01-04T15:30:47.908Z,5.70
2018-01-04T15:33:18.758Z,5.40
2018-01-04T15:35:49.382Z,5.40
2018-01-04T15:38:20.833Z,6.13
2018-01-04T15:40:51.488Z,5.87
2018-01-04T15:43:22.110Z,5.20
2018-01-04T15:45:52.755Z,6.30
2018-01-04T15:48:23.313Z,5.57
2018-01-04T15:50:53.917Z,5.53
2018-01-04T15:53:24.522Z,4.83
2018-01-04T15:55:55.081Z,5.30
2018-01-04T15:58:25.680Z,5.00
2018-01-04T16:00:56.631Z,6.00
2018-01-04T16:03:27.224Z,5.50
2018-01-04T16:05:57.814Z,5.37
2018-01-04T16:08:28.421Z,5.63
2018-01-04T16:10:59.082Z,6.57
2018-01-04T16:13:29.705Z,5.67
2018-01-04T16:16:00.287Z,6.90
2018-01-04T16:18:30.910Z,5.10
2018-01-04T16:21:01.490Z,5.57
2018-01-04T16:23:32.137Z,4.80
2018-01-04T16:26:02.817Z,5.63
2018-01-04T16:28:33.472Z,5.50
2018-01-04T16:31:04.051Z,6.77
2018-01-04T16:33:34.686Z,5.90
2018-01-04T16:36:10.667Z,5.73
2018-01-04T16:38:41.805Z,5.67
2018-01-04T16:41:12.438Z,5.50
2018-01-04T16:43:43.018Z,5.57
2018-01-04T16:46:15.628Z,6.90
2018-01-04T16:49:05.770Z,5.50
2018-01-04T16:51:54.601Z,5.70
2018-01-04T16:54:39.161Z,5.50
2018-01-04T16:57:10.592Z,6.73
2018-01-04T16:59:54.799Z,6.03
2018-01-04T17:02:47.456Z,5.50
2018-01-04T17:05:35.006Z,5.50
2018-01-04T17:08:39.634Z,6.50
2018-01-04T17:11:25.462Z,6.43
2018-01-04T17:14:16.205Z,7.37
2018-01-04T17:17:05.330Z,6.90
2018-01-04T17:19:57.065Z,6.23
2018-01-04T17:22:40.510Z,5.60
2018-01-04T17:25:26.646Z,5.30
2018-01-04T17:28:16.190Z,7.70
2018-01-04T17:31:05.562Z,5.80
2018-01-04T17:33:56.091Z,6.70
2018-01-04T17:36:44.389Z,6.60
2018-01-04T17:39:43.226Z,6.00
2018-01-04T17:42:33.553Z,6.00
2018-01-04T17:45:20.864Z,6.77
2018-01-04T17:48:11.252Z,6.80
2018-01-04T17:50:59.902Z,7.37
2018-01-04T17:53:46.494Z,7.00
2018-01-04T17:56:22.907Z,8.27
2018-01-04T17:59:08.353Z,7.27
2018-01-04T18:01:56.621Z,7.43
2018-01-04T18:04:44.119Z,7.40
2018-01-04T18:07:42.928Z,7.17
2018-01-04T18:10:41.979Z,6.90
2018-01-04T18:13:35.446Z,7.40
2018-01-04T18:16:17.326Z,7.47
2018-01-04T18:19:01.505Z,7.80
2018-01-04T18:21:48.134Z,8.07
2018-01-04T18:24:36.143Z,8.50
2018-01-04T18:27:23.377Z,8.70
2018-01-04T18:30:11.971Z,7.93
2018-01-04T18:32:47.135Z,9.90
2018-01-04T18:35:31.635Z,8.70
2018-01-04T18:38:23.975Z,8.90
2018-01-04T18:41:13.338Z,8.87
2018-01-04T18:43:49.401Z,8.50
2018-01-04T18:46:24.972Z,8.73
2018-01-04T18:48:55.599Z,9.07
2018-01-04T18:51:27.056Z,7.93
2018-01-04T18:53:59.617Z,8.10
2018-01-04T18:56:35.145Z,10.10
2018-01-04T18:59:05.822Z,9.63
2018-01-04T19:01:36.411Z,8.90
2018-01-04T19:04:08.086Z,8.90
2018-01-04T19:06:39.216Z,9.80
2018-01-04T19:09:09.901Z,9.20
2018-01-04T19:11:39.969Z,9.90
2018-01-04T19:14:10.589Z,8.97
2018-01-04T19:16:41.161Z,8.00
2018-01-04T19:19:11.909Z,9.50
2018-01-04T19:21:42.581Z,9.77
2018-01-04T19:24:13.186Z,9.60
2018-01-04T19:26:43.874Z,8.97
2018-01-04T19:29:14.226Z,10.10
2018-01-04T19:31:44.894Z,9.30
2018-01-04T19:34:16.102Z,8.07
2018-01-04T19:36:46.759Z,7.57
2018-01-04T19:39:17.339Z,8.40
2018-01-04T19:41:48.042Z,7.93
2018-01-04T19:44:18.634Z,8.30
2018-01-04T19:46:49.198Z,7.93
2018-01-04T19:49:19.862Z,7.93
2018-01-04T19:51:50.174Z,7.87
2018-01-04T19:54:20.832Z,8.33
2018-01-04T19:56:51.399Z,8.73
2018-01-04T19:59:22.070Z,7.07
2018-01-04T20:01:52.640Z,7.23
2018-01-04T20:04:24.277Z,7.93
2018-01-04T20:06:54.913Z,8.13
2018-01-04T20:09:25.506Z,7.93
2018-01-04T20:11:56.257Z,8.33
2018-01-04T20:14:29.120Z,7.70
2018-01-04T20:17:02.151Z,8.07
2018-01-04T20:19:32.754Z,6.53
2018-01-04T20:22:04.318Z,8.20
2018-01-04T20:24:34.896Z,8.37
2018-01-04T20:27:05.522Z,8.20
2018-01-04T20:29:36.106Z,8.97
2018-01-04T20:32:06.718Z,9.17
2018-01-04T20:34:37.082Z,8.10
2018-01-04T20:37:07.641Z,9.00
2018-01-04T20:39:38.366Z,7.93
2018-01-04T20:42:09.012Z,7.30
2018-01-04T20:44:40.454Z,7.83
2018-01-04T20:47:11.094Z,8.50
2018-01-04T20:49:41.973Z,8.27
2018-01-04T20:52:12.584Z,7.57
2018-01-04T20:54:43.535Z,7.57
2018-01-04T20:57:14.134Z,7.10
2018-01-04T20:59:44.694Z,7.37
2018-01-04T21:02:15.380Z,6.60
2018-01-04T21:04:45.947Z,7.47
2018-01-04T21:07:16.566Z,6.93
2018-01-04T21:09:47.877Z,6.30
2018-01-04T21:12:19.263Z,5.90
2018-01-04T21:14:49.796Z,6.60
2018-01-04T21:17:20.446Z,7.03
2018-01-04T21:19:51.043Z,7.67
2018-01-04T21:22:21.704Z,6.13
2018-01-04T21:24:52.032Z,5.97
2018-01-04T21:27:22.677Z,5.80
2018-01-04T21:29:53.000Z,6.00
2018-01-04T21:32:24.553Z,6.20
2018-01-04T21:34:55.126Z,5.90
2018-01-04T21:37:25.744Z,6.70
2018-01-04T21:39:56.359Z,6.40
2018-01-04T21:42:27.006Z,5.83
2018-01-04T21:44:57.610Z,5.30
2018-01-04T21:47:28.247Z,5.37
2018-01-04T21:49:58.839Z,5.23
2018-01-04T21:52:29.355Z,4.97
2018-01-04T21:54:59.978Z,5.80
2018-01-04T21:57:30.602Z,5.90
2018-01-04T22:00:05.877Z,5.10
2018-01-04T22:02:39.415Z,5.40
2018-01-04T22:05:11.266Z,4.70
2018-01-04T22:10:44.095Z,5.57
2018-01-04T22:13:28.420Z,4.93
2018-01-04T22:16:13.281Z,5.10
2018-01-04T22:18:57.245Z,6.40
2018-01-04T22:21:48.287Z,5.37
2018-01-04T22:24:49.599Z,4.70
2018-01-04T22:27:49.918Z,4.90
2018-01-04T22:30:37.579Z,4.93
2018-01-04T22:33:27.656Z,5.10
2018-01-04T22:39:23.160Z,5.37
2018-01-04T22:42:29.753Z,4.77
2018-01-04T22:45:21.259Z,5.80
2018-01-04T22:48:11.396Z,5.13
2018-01-04T22:51:02.868Z,4.63
2018-01-04T22:53:53.174Z,4.73
2018-01-04T22:57:00.565Z,4.53
2018-01-04T23:00:07.283Z,4.53
2018-01-04T23:03:00.566Z,4.53
2018-01-04T23:08:51.597Z,5.27
2018-01-04T23:11:33.066Z,4.80
2018-01-04T23:14:04.290Z,6.30
2018-01-04T23:16:34.205Z,5.00
2018-01-04T23:19:04.639Z,6.03
2018-01-04T23:21:35.338Z,5.93
2018-01-04T23:24:05.912Z,6.30
2018-01-04T23:26:36.494Z,5.77
2018-01-04T23:29:07.170Z,6.47
2018-01-04T23:31:37.814Z,6.40
2018-01-04T23:34:08.446Z,6.57
2018-01-04T23:36:39.103Z,6.20
2018-01-04T23:39:09.867Z,7.50
2018-01-04T23:41:42.290Z,7.00
2018-01-04T23:44:12.933Z,6.90
2018-01-04T23:46:43.256Z,6.43
2018-01-04T23:49:13.885Z,6.17
2018-01-04T23:51:44.425Z,6.17
2018-01-04T23:54:15.057Z,5.63
2018-01-04T23:56:45.629Z,5.83
2018-01-04T23:59:16.310Z,5.20
